sensor_id;sensor_type;location;lat;lon;timestamp;pressure;altitude;pressure_sealevel;temperature;humidity
41254;BME280;26987;59.928;30.306;2022-12-11T00:01:56;101496.94;;;-4.86;87.17
41254;BME280;26987;59.928;30.306;2022-12-11T00:04:24;101503.84;;;-4.85;87.33
41254;BME280;26987;59.928;30.306;2022-12-11T00:06:52;101500.06;;;-4.79;88.34
41254;BME280;26987;59.928;30.306;2022-12-11T00:09:20;101507.72;;;-4.76;87.08
41254;BME280;26987;59.928;30.306;2022-12-11T00:11:48;101499.22;;;-4.79;87.83
41254;BME280;26987;59.928;30.306;2022-12-11T00:14:15;101505.69;;;-4.71;87.08
41254;BME280;26987;59.928;30.306;2022-12-11T00:16:43;101498.22;;;-4.62;87.13
41254;BME280;26987;59.928;30.306;2022-12-11T00:19:12;101510.22;;;-4.58;88.07
41254;BME280;26987;59.928;30.306;2022-12-11T00:21:40;101504.22;;;-4.60;86.72
41254;BME280;26987;59.928;30.306;2022-12-11T00:24:08;101502.63;;;-4.63;86.45
41254;BME280;26987;59.928;30.306;2022-12-11T00:26:35;101507.78;;;-4.61;86.76
41254;BME280;26987;59.928;30.306;2022-12-11T00:29:05;101490.84;;;-4.70;87.34
41254;BME280;26987;59.928;30.306;2022-12-11T00:31:36;101507.44;;;-4.55;86.39
41254;BME280;26987;59.928;30.306;2022-12-11T00:34:03;101509.78;;;-4.50;86.71
41254;BME280;26987;59.928;30.306;2022-12-11T00:36:33;101500.41;;;-4.54;87.44
41254;BME280;26987;59.928;30.306;2022-12-11T00:39:01;101504.25;;;-4.46;86.76
41254;BME280;26987;59.928;30.306;2022-12-11T00:41:29;101511.69;;;-4.38;87.03
41254;BME280;26987;59.928;30.306;2022-12-11T00:43:57;101513.19;;;-4.34;86.36
41254;BME280;26987;59.928;30.306;2022-12-11T00:46:25;101505.22;;;-4.32;85.28
41254;BME280;26987;59.928;30.306;2022-12-11T00:48:53;101512.09;;;-4.29;85.28
41254;BME280;26987;59.928;30.306;2022-12-11T00:51:20;101510.69;;;-4.35;85.68
41254;BME280;26987;59.928;30.306;2022-12-11T00:53:49;101504.59;;;-4.36;85.39
41254;BME280;26987;59.928;30.306;2022-12-11T00:56:18;101492.13;;;-4.47;85.45
41254;BME280;26987;59.928;30.306;2022-12-11T00:58:47;101507.13;;;-4.34;85.75
41254;BME280;26987;59.928;30.306;2022-12-11T01:01:17;101501.78;;;-4.33;85.30
41254;BME280;26987;59.928;30.306;2022-12-11T01:03:45;101460.59;;;-4.60;84.75
41254;BME280;26987;59.928;30.306;2022-12-11T01:06:15;101503.72;;;-4.36;85.31
41254;BME280;26987;59.928;30.306;2022-12-11T01:08:43;101511.03;;;-4.41;85.94
41254;BME280;26987;59.928;30.306;2022-12-11T01:11:14;101504.59;;;-4.36;85.65
41254;BME280;26987;59.928;30.306;2022-12-11T01:13:41;101503.38;;;-4.30;86.49
41254;BME280;26987;59.928;30.306;2022-12-11T01:16:11;101501.16;;;-4.22;86.01
41254;BME280;26987;59.928;30.306;2022-12-11T01:18:40;101505.91;;;-4.14;85.71
41254;BME280;26987;59.928;30.306;2022-12-11T01:21:10;101500.78;;;-4.15;85.09
41254;BME280;26987;59.928;30.306;2022-12-11T01:23:39;101465.00;;;-4.46;85.17
41254;BME280;26987;59.928;30.306;2022-12-11T01:26:08;101506.09;;;-4.17;86.53
41254;BME280;26987;59.928;30.306;2022-12-11T01:28:37;101514.63;;;-4.13;85.15
41254;BME280;26987;59.928;30.306;2022-12-11T01:31:07;101515.41;;;-4.11;84.89
41254;BME280;26987;59.928;30.306;2022-12-11T01:33:35;101496.38;;;-4.15;85.52
41254;BME280;26987;59.928;30.306;2022-12-11T01:36:06;101499.81;;;-4.29;85.70
41254;BME280;26987;59.928;30.306;2022-12-11T01:38:34;101503.34;;;-4.45;84.84
41254;BME280;26987;59.928;30.306;2022-12-11T01:41:02;101495.53;;;-4.61;85.54
41254;BME280;26987;59.928;30.306;2022-12-11T01:43:33;101497.44;;;-4.79;86.35
41254;BME280;26987;59.928;30.306;2022-12-11T01:46:02;101503.19;;;-4.88;87.20
41254;BME280;26987;59.928;30.306;2022-12-11T01:48:30;101502.03;;;-4.99;87.83
41254;BME280;26987;59.928;30.306;2022-12-11T01:51:01;101496.13;;;-5.02;88.01
41254;BME280;26987;59.928;30.306;2022-12-11T01:53:34;101477.31;;;-5.25;88.54
41254;BME280;26987;59.928;30.306;2022-12-11T01:56:04;101463.66;;;-5.30;88.72
41254;BME280;26987;59.928;30.306;2022-12-11T01:58:37;101497.31;;;-5.08;89.29
41254;BME280;26987;59.928;30.306;2022-12-11T02:01:09;101507.44;;;-5.02;88.97
41254;BME280;26987;59.928;30.306;2022-12-11T02:03:40;101505.38;;;-4.97;88.53
41254;BME280;26987;59.928;30.306;2022-12-11T02:06:29;101501.31;;;-4.86;88.38
41254;BME280;26987;59.928;30.306;2022-12-11T02:08:58;101505.09;;;-4.76;87.61
41254;BME280;26987;59.928;30.306;2022-12-11T02:11:33;101503.00;;;-4.69;88.77
41254;BME280;26987;59.928;30.306;2022-12-11T02:14:05;101462.66;;;-4.81;87.30
41254;BME280;26987;59.928;30.306;2022-12-11T02:16:42;101496.59;;;-4.49;88.19
41254;BME280;26987;59.928;30.306;2022-12-11T02:19:21;101469.56;;;-4.64;87.73
41254;BME280;26987;59.928;30.306;2022-12-11T02:21:52;101487.91;;;-4.49;86.53
41254;BME280;26987;59.928;30.306;2022-12-11T02:24:35;101504.66;;;-4.52;87.60
41254;BME280;26987;59.928;30.306;2022-12-11T02:27:17;101505.72;;;-4.56;87.57
41254;BME280;26987;59.928;30.306;2022-12-11T02:29:52;101507.44;;;-4.55;86.83
41254;BME280;26987;59.928;30.306;2022-12-11T02:32:24;101510.59;;;-4.64;86.78
41254;BME280;26987;59.928;30.306;2022-12-11T02:34:57;101500.84;;;-4.62;87.29
41254;BME280;26987;59.928;30.306;2022-12-11T02:37:28;101499.78;;;-4.74;87.46
41254;BME280;26987;59.928;30.306;2022-12-11T02:39:58;101501.56;;;-4.75;86.74
41254;BME280;26987;59.928;30.306;2022-12-11T02:42:28;101468.03;;;-4.99;87.58
41254;BME280;26987;59.928;30.306;2022-12-11T02:44:59;101506.88;;;-4.76;88.14
41254;BME280;26987;59.928;30.306;2022-12-11T02:47:29;101505.09;;;-4.76;87.54
41254;BME280;26987;59.928;30.306;2022-12-11T02:50:00;101499.38;;;-4.83;87.30
41254;BME280;26987;59.928;30.306;2022-12-11T02:52:30;101462.19;;;-5.04;87.69
41254;BME280;26987;59.928;30.306;2022-12-11T02:55:00;101508.00;;;-4.81;88.46
41254;BME280;26987;59.928;30.306;2022-12-11T02:57:34;101502.84;;;-4.82;88.24
41254;BME280;26987;59.928;30.306;2022-12-11T03:00:08;101512.13;;;-4.76;88.45
41254;BME280;26987;59.928;30.306;2022-12-11T03:02:36;101497.97;;;-4.88;88.15
41254;BME280;26987;59.928;30.306;2022-12-11T03:05:05;101495.25;;;-4.87;88.28
41254;BME280;26987;59.928;30.306;2022-12-11T03:07:36;101512.94;;;-4.76;88.22
41254;BME280;26987;59.928;30.306;2022-12-11T03:10:07;101496.78;;;-4.83;88.32
41254;BME280;26987;59.928;30.306;2022-12-11T03:12:38;101513.81;;;-4.75;88.47
41254;BME280;26987;59.928;30.306;2022-12-11T03:15:10;101468.75;;;-4.97;88.03
41254;BME280;26987;59.928;30.306;2022-12-11T03:17:46;101503.16;;;-4.72;88.04
41254;BME280;26987;59.928;30.306;2022-12-11T03:20:23;101511.09;;;-4.74;87.63
41254;BME280;26987;59.928;30.306;2022-12-11T03:23:00;101503.00;;;-4.69;87.47
41254;BME280;26987;59.928;30.306;2022-12-11T03:25:34;101504.19;;;-4.75;87.26
41254;BME280;26987;59.928;30.306;2022-12-11T03:28:09;101478.56;;;-5.00;87.49
41254;BME280;26987;59.928;30.306;2022-12-11T03:30:40;101508.59;;;-4.91;87.52
41254;BME280;26987;59.928;30.306;2022-12-11T03:33:11;101496.81;;;-4.99;87.54
41254;BME280;26987;59.928;30.306;2022-12-11T03:35:43;101490.41;;;-5.09;87.78
41254;BME280;26987;59.928;30.306;2022-12-11T03:38:15;101516.03;;;-5.00;87.37
41254;BME280;26987;59.928;30.306;2022-12-11T03:40:47;101517.03;;;-5.02;86.99
41254;BME280;26987;59.928;30.306;2022-12-11T03:43:17;101473.25;;;-5.31;87.54
41254;BME280;26987;59.928;30.306;2022-12-11T03:45:48;101515.44;;;-5.05;87.86
41254;BME280;26987;59.928;30.306;2022-12-11T03:48:19;101493.94;;;-5.26;87.34
41254;BME280;26987;59.928;30.306;2022-12-11T03:50:48;101520.41;;;-5.16;87.74
41254;BME280;26987;59.928;30.306;2022-12-11T03:53:18;101517.06;;;-5.19;87.92
41254;BME280;26987;59.928;30.306;2022-12-11T03:55:47;101522.22;;;-5.17;87.26
41254;BME280;26987;59.928;30.306;2022-12-11T03:58:16;101522.84;;;-5.13;88.18
41254;BME280;26987;59.928;30.306;2022-12-11T04:00:43;101519.59;;;-5.17;87.61
41254;BME280;26987;59.928;30.306;2022-12-11T04:03:12;101521.34;;;-5.17;88.32
41254;BME280;26987;59.928;30.306;2022-12-11T04:05:42;101515.47;;;-5.21;88.82
41254;BME280;26987;59.928;30.306;2022-12-11T04:08:10;101499.34;;;-5.29;88.65
41254;BME280;26987;59.928;30.306;2022-12-11T04:10:38;101486.44;;;-5.33;88.20
41254;BME280;26987;59.928;30.306;2022-12-11T04:13:06;101519.41;;;-5.14;88.34
41254;BME280;26987;59.928;30.306;2022-12-11T04:15:35;101473.19;;;-5.46;88.22
41254;BME280;26987;59.928;30.306;2022-12-11T04:18:02;101507.88;;;-5.26;88.57
41254;BME280;26987;59.928;30.306;2022-12-11T04:20:49;101516.28;;;-5.21;87.82
41254;BME280;26987;59.928;30.306;2022-12-11T04:23:51;101513.44;;;-5.32;87.82
41254;BME280;26987;59.928;30.306;2022-12-11T04:26:36;101518.22;;;-5.40;88.92
41254;BME280;26987;59.928;30.306;2022-12-11T04:29:04;101515.03;;;-5.46;88.84
41254;BME280;26987;59.928;30.306;2022-12-11T04:31:31;101512.72;;;-5.52;89.21
41254;BME280;26987;59.928;30.306;2022-12-11T04:33:59;101469.63;;;-5.77;90.21
41254;BME280;26987;59.928;30.306;2022-12-11T04:36:28;101509.94;;;-5.49;88.97
41254;BME280;26987;59.928;30.306;2022-12-11T04:38:56;101509.34;;;-5.54;88.69
41254;BME280;26987;59.928;30.306;2022-12-11T04:41:23;101512.81;;;-5.53;89.48
41254;BME280;26987;59.928;30.306;2022-12-11T04:43:51;101514.00;;;-5.59;89.77
41254;BME280;26987;59.928;30.306;2022-12-11T04:46:20;101518.19;;;-5.57;90.18
41254;BME280;26987;59.928;30.306;2022-12-11T04:48:50;101497.19;;;-5.71;89.92
41254;BME280;26987;59.928;30.306;2022-12-11T04:51:18;101502.03;;;-5.63;90.16
41254;BME280;26987;59.928;30.306;2022-12-11T04:53:47;101519.56;;;-5.49;89.54
41254;BME280;26987;59.928;30.306;2022-12-11T04:56:15;101515.34;;;-5.52;89.22
41254;BME280;26987;59.928;30.306;2022-12-11T04:58:44;101508.06;;;-5.63;90.26
41254;BME280;26987;59.928;30.306;2022-12-11T05:01:13;101488.91;;;-5.79;89.38
41254;BME280;26987;59.928;30.306;2022-12-11T05:03:42;101513.13;;;-5.76;90.56
41254;BME280;26987;59.928;30.306;2022-12-11T05:06:10;101525.16;;;-5.73;91.35
41254;BME280;26987;59.928;30.306;2022-12-11T05:08:40;101484.81;;;-6.01;91.09
41254;BME280;26987;59.928;30.306;2022-12-11T05:11:11;101530.16;;;-5.68;91.21
41254;BME280;26987;59.928;30.306;2022-12-11T05:13:39;101507.50;;;-5.86;90.02
41254;BME280;26987;59.928;30.306;2022-12-11T05:16:08;101524.19;;;-5.88;90.95
41254;BME280;26987;59.928;30.306;2022-12-11T05:18:37;101519.28;;;-5.95;91.17
41254;BME280;26987;59.928;30.306;2022-12-11T05:21:06;101546.78;;;-5.87;91.50
41254;BME280;26987;59.928;30.306;2022-12-11T05:23:35;101542.72;;;-5.93;90.77
41254;BME280;26987;59.928;30.306;2022-12-11T05:26:04;101530.13;;;-6.02;91.01
41254;BME280;26987;59.928;30.306;2022-12-11T05:28:35;101543.81;;;-5.97;91.48
41254;BME280;26987;59.928;30.306;2022-12-11T05:31:05;101549.34;;;-6.03;91.94
41254;BME280;26987;59.928;30.306;2022-12-11T05:33:33;101552.13;;;-6.06;92.54
41254;BME280;26987;59.928;30.306;2022-12-11T05:36:01;101559.31;;;-6.10;91.98
41254;BME280;26987;59.928;30.306;2022-12-11T05:38:29;101562.00;;;-6.12;92.36
41254;BME280;26987;59.928;30.306;2022-12-11T05:40:58;101568.19;;;-6.14;92.60
41254;BME280;26987;59.928;30.306;2022-12-11T05:43:28;101561.50;;;-6.20;92.97
41254;BME280;26987;59.928;30.306;2022-12-11T05:46:04;101573.75;;;-6.21;93.02
41254;BME280;26987;59.928;30.306;2022-12-11T05:48:32;101570.44;;;-6.24;93.47
41254;BME280;26987;59.928;30.306;2022-12-11T05:51:01;101533.94;;;-6.43;94.09
41254;BME280;26987;59.928;30.306;2022-12-11T05:53:29;101577.09;;;-6.18;93.44
41254;BME280;26987;59.928;30.306;2022-12-11T05:56:00;101584.19;;;-6.21;93.42
41254;BME280;26987;59.928;30.306;2022-12-11T05:58:29;101578.34;;;-6.26;93.57
41254;BME280;26987;59.928;30.306;2022-12-11T06:00:58;101588.69;;;-6.24;93.49
41254;BME280;26987;59.928;30.306;2022-12-11T06:03:26;101589.00;;;-6.30;93.77
41254;BME280;26987;59.928;30.306;2022-12-11T06:05:54;101578.03;;;-6.37;93.62
41254;BME280;26987;59.928;30.306;2022-12-11T06:08:22;101594.28;;;-6.32;93.76
41254;BME280;26987;59.928;30.306;2022-12-11T06:10:49;101587.53;;;-6.36;93.54
41254;BME280;26987;59.928;30.306;2022-12-11T06:13:17;101579.47;;;-6.49;94.33
41254;BME280;26987;59.928;30.306;2022-12-11T06:15:45;101595.06;;;-6.48;94.11
41254;BME280;26987;59.928;30.306;2022-12-11T06:18:14;101578.53;;;-6.66;94.77
41254;BME280;26987;59.928;30.306;2022-12-11T06:20:42;101605.00;;;-6.56;94.85
41254;BME280;26987;59.928;30.306;2022-12-11T06:23:09;101595.66;;;-6.60;94.64
41254;BME280;26987;59.928;30.306;2022-12-11T06:25:37;101605.22;;;-6.61;95.58
41254;BME280;26987;59.928;30.306;2022-12-11T06:28:05;101600.16;;;-6.64;95.24
41254;BME280;26987;59.928;30.306;2022-12-11T06:30:33;101598.78;;;-6.53;95.82
41254;BME280;26987;59.928;30.306;2022-12-11T06:33:01;101596.41;;;-6.58;95.59
41254;BME280;26987;59.928;30.306;2022-12-11T06:35:30;101599.00;;;-6.58;95.95
41254;BME280;26987;59.928;30.306;2022-12-11T06:37:58;101604.22;;;-6.58;95.52
41254;BME280;26987;59.928;30.306;2022-12-11T06:40:26;101606.69;;;-6.55;95.80
41254;BME280;26987;59.928;30.306;2022-12-11T06:42:53;101565.06;;;-6.76;95.82
41254;BME280;26987;59.928;30.306;2022-12-11T06:45:21;101607.47;;;-6.53;95.48
41254;BME280;26987;59.928;30.306;2022-12-11T06:47:48;101616.09;;;-6.51;95.20
41254;BME280;26987;59.928;30.306;2022-12-11T06:50:16;101595.78;;;-6.63;95.47
41254;BME280;26987;59.928;30.306;2022-12-11T06:52:45;101612.69;;;-6.53;95.61
41254;BME280;26987;59.928;30.306;2022-12-11T06:55:13;101627.44;;;-6.52;95.07
41254;BME280;26987;59.928;30.306;2022-12-11T06:57:41;101620.38;;;-6.50;95.88
41254;BME280;26987;59.928;30.306;2022-12-11T07:00:10;101621.16;;;-6.48;95.90
41254;BME280;26987;59.928;30.306;2022-12-11T07:02:37;101613.75;;;-6.57;95.01
41254;BME280;26987;59.928;30.306;2022-12-11T07:05:06;101611.16;;;-6.57;95.58
41254;BME280;26987;59.928;30.306;2022-12-11T07:07:34;101624.34;;;-6.60;95.58
41254;BME280;26987;59.928;30.306;2022-12-11T07:10:03;101619.88;;;-6.58;95.62
41254;BME280;26987;59.928;30.306;2022-12-11T07:12:31;101625.34;;;-6.63;96.01
41254;BME280;26987;59.928;30.306;2022-12-11T07:14:59;101627.09;;;-6.63;95.25
41254;BME280;26987;59.928;30.306;2022-12-11T07:17:27;101626.25;;;-6.64;95.51
41254;BME280;26987;59.928;30.306;2022-12-11T07:19:55;101625.56;;;-6.67;96.19
41254;BME280;26987;59.928;30.306;2022-12-11T07:22:23;101628.03;;;-6.64;95.44
41254;BME280;26987;59.928;30.306;2022-12-11T07:24:51;101617.09;;;-6.73;96.00
41254;BME280;26987;59.928;30.306;2022-12-11T07:27:20;101630.56;;;-6.63;95.39
41254;BME280;26987;59.928;30.306;2022-12-11T07:29:49;101613.97;;;-6.62;95.45
41254;BME280;26987;59.928;30.306;2022-12-11T07:32:17;101625.22;;;-6.60;95.40
41254;BME280;26987;59.928;30.306;2022-12-11T07:34:44;101621.03;;;-6.64;95.61
41254;BME280;26987;59.928;30.306;2022-12-11T07:37:12;101613.97;;;-6.62;95.16
41254;BME280;26987;59.928;30.306;2022-12-11T07:39:40;101627.63;;;-6.56;94.83
41254;BME280;26987;59.928;30.306;2022-12-11T07:42:07;101624.97;;;-6.55;94.96
41254;BME280;26987;59.928;30.306;2022-12-11T07:44:36;101617.91;;;-6.53;94.60
41254;BME280;26987;59.928;30.306;2022-12-11T07:47:04;101626.53;;;-6.51;94.97
41254;BME280;26987;59.928;30.306;2022-12-11T07:49:32;101635.81;;;-6.45;94.86
41254;BME280;26987;59.928;30.306;2022-12-11T07:52:00;101640.75;;;-6.39;94.71
41254;BME280;26987;59.928;30.306;2022-12-11T07:54:27;101636.34;;;-6.38;95.27
41254;BME280;26987;59.928;30.306;2022-12-11T07:56:55;101626.06;;;-6.41;95.26
41254;BME280;26987;59.928;30.306;2022-12-11T07:59:23;101640.94;;;-6.24;94.38
41254;BME280;26987;59.928;30.306;2022-12-11T08:01:52;101623.88;;;-6.31;94.09
41254;BME280;26987;59.928;30.306;2022-12-11T08:04:19;101640.94;;;-6.24;93.48
41254;BME280;26987;59.928;30.306;2022-12-11T08:06:47;101645.28;;;-6.25;93.71
41254;BME280;26987;59.928;30.306;2022-12-11T08:09:16;101632.00;;;-6.38;93.70
41254;BME280;26987;59.928;30.306;2022-12-11T08:11:48;101652.22;;;-6.24;94.37
41254;BME280;26987;59.928;30.306;2022-12-11T08:14:16;101631.63;;;-6.30;94.18
41254;BME280;26987;59.928;30.306;2022-12-11T08:16:44;101660.84;;;-6.04;93.54
41254;BME280;26987;59.928;30.306;2022-12-11T08:19:14;101663.75;;;-5.92;92.54
41254;BME280;26987;59.928;30.306;2022-12-11T08:21:41;101662.66;;;-5.88;91.97
41254;BME280;26987;59.928;30.306;2022-12-11T08:24:09;101651.13;;;-5.84;91.62
41254;BME280;26987;59.928;30.306;2022-12-11T08:26:37;101662.06;;;-5.76;91.05
41254;BME280;26987;59.928;30.306;2022-12-11T08:29:04;101654.06;;;-5.73;90.92
41254;BME280;26987;59.928;30.306;2022-12-11T08:31:32;101653.22;;;-5.91;89.99
41254;BME280;26987;59.928;30.306;2022-12-11T08:34:00;101661.50;;;-5.83;89.98
41254;BME280;26987;59.928;30.306;2022-12-11T08:36:29;101663.81;;;-5.76;90.08
41254;BME280;26987;59.928;30.306;2022-12-11T08:38:57;101661.44;;;-5.81;90.22
41254;BME280;26987;59.928;30.306;2022-12-11T08:41:26;101666.19;;;-5.72;89.69
41254;BME280;26987;59.928;30.306;2022-12-11T08:43:54;101672.88;;;-5.66;89.86
41254;BME280;26987;59.928;30.306;2022-12-11T08:46:24;101671.91;;;-5.63;89.07
41254;BME280;26987;59.928;30.306;2022-12-11T08:48:52;101647.53;;;-5.82;88.69
41254;BME280;26987;59.928;30.306;2022-12-11T08:51:22;101683.81;;;-5.58;88.41
41254;BME280;26987;59.928;30.306;2022-12-11T08:53:53;101681.03;;;-5.54;87.85
41254;BME280;26987;59.928;30.306;2022-12-11T08:56:21;101692.16;;;-5.51;87.44
41254;BME280;26987;59.928;30.306;2022-12-11T08:58:49;101711.25;;;-5.49;87.46
41254;BME280;26987;59.928;30.306;2022-12-11T09:01:19;101705.72;;;-5.42;87.57
41254;BME280;26987;59.928;30.306;2022-12-11T09:03:48;101671.41;;;-5.54;87.89
41254;BME280;26987;59.928;30.306;2022-12-11T09:06:18;101696.25;;;-5.27;87.54
41254;BME280;26987;59.928;30.306;2022-12-11T09:08:47;101681.72;;;-5.33;86.82
41254;BME280;26987;59.928;30.306;2022-12-11T09:11:19;101708.56;;;-5.13;85.87
41254;BME280;26987;59.928;30.306;2022-12-11T09:13:47;101700.97;;;-5.18;85.86
41254;BME280;26987;59.928;30.306;2022-12-11T09:16:18;101706.13;;;-5.16;86.58
41254;BME280;26987;59.928;30.306;2022-12-11T09:18:47;101721.34;;;-5.07;85.63
41254;BME280;26987;59.928;30.306;2022-12-11T09:21:17;101678.75;;;-5.27;85.97
41254;BME280;26987;59.928;30.306;2022-12-11T09:23:45;101698.19;;;-5.15;85.47
41254;BME280;26987;59.928;30.306;2022-12-11T09:26:14;101711.66;;;-5.05;85.90
41254;BME280;26987;59.928;30.306;2022-12-11T09:28:44;101711.81;;;-5.08;84.98
41254;BME280;26987;59.928;30.306;2022-12-11T09:31:13;101652.81;;;-5.48;85.37
41254;BME280;26987;59.928;30.306;2022-12-11T09:33:42;101664.41;;;-5.36;86.19
41254;BME280;26987;59.928;30.306;2022-12-11T09:36:10;101711.81;;;-5.08;85.47
41254;BME280;26987;59.928;30.306;2022-12-11T09:38:38;101720.91;;;-5.15;85.00
41254;BME280;26987;59.928;30.306;2022-12-11T09:41:25;101702.28;;;-5.09;85.77
41254;BME280;26987;59.928;30.306;2022-12-11T09:44:02;101715.38;;;-5.09;85.33
41254;BME280;26987;59.928;30.306;2022-12-11T09:46:33;101709.97;;;-5.06;86.02
41254;BME280;26987;59.928;30.306;2022-12-11T09:49:04;101711.41;;;-5.00;85.51
41254;BME280;26987;59.928;30.306;2022-12-11T09:51:40;101685.03;;;-5.13;85.83
41254;BME280;26987;59.928;30.306;2022-12-11T09:54:10;101711.84;;;-4.92;85.76
41254;BME280;26987;59.928;30.306;2022-12-11T09:56:44;101706.28;;;-4.86;85.96
41254;BME280;26987;59.928;30.306;2022-12-11T09:59:23;101707.38;;;-4.90;85.97
41254;BME280;26987;59.928;30.306;2022-12-11T10:02:00;101708.66;;;-4.81;85.19
41254;BME280;26987;59.928;30.306;2022-12-11T10:04:37;101712.53;;;-4.88;84.96
41254;BME280;26987;59.928;30.306;2022-12-11T10:07:15;101698.25;;;-4.99;85.96
41254;BME280;26987;59.928;30.306;2022-12-11T10:09:49;101708.03;;;-4.86;84.36
41254;BME280;26987;59.928;30.306;2022-12-11T10:12:28;101712.38;;;-4.85;84.46
41254;BME280;26987;59.928;30.306;2022-12-11T10:15:13;101702.72;;;-5.01;85.26
41254;BME280;26987;59.928;30.306;2022-12-11T10:17:43;101705.09;;;-4.96;84.84
41254;BME280;26987;59.928;30.306;2022-12-11T10:20:19;101697.63;;;-5.04;85.91
41254;BME280;26987;59.928;30.306;2022-12-11T10:22:49;101710.38;;;-5.14;85.88
41254;BME280;26987;59.928;30.306;2022-12-11T10:25:21;101669.34;;;-5.47;85.40
41254;BME280;26987;59.928;30.306;2022-12-11T10:27:50;101694.38;;;-5.25;86.70
41254;BME280;26987;59.928;30.306;2022-12-11T10:30:21;101696.16;;;-5.26;86.99
41254;BME280;26987;59.928;30.306;2022-12-11T10:32:53;101688.69;;;-5.34;86.57
41254;BME280;26987;59.928;30.306;2022-12-11T10:35:32;101664.28;;;-5.50;86.72
41254;BME280;26987;59.928;30.306;2022-12-11T10:38:12;101697.41;;;-5.33;88.17
41254;BME280;26987;59.928;30.306;2022-12-11T10:40:43;101707.53;;;-5.27;88.49
41254;BME280;26987;59.928;30.306;2022-12-11T10:43:11;101705.00;;;-5.28;87.67
41254;BME280;26987;59.928;30.306;2022-12-11T10:45:49;101701.69;;;-5.32;87.35
41254;BME280;26987;59.928;30.306;2022-12-11T10:48:17;101697.72;;;-5.39;87.91
41254;BME280;26987;59.928;30.306;2022-12-11T10:50:55;101694.47;;;-5.45;88.38
41254;BME280;26987;59.928;30.306;2022-12-11T10:53:23;101684.09;;;-5.46;89.05
41254;BME280;26987;59.928;30.306;2022-12-11T10:55:52;101668.56;;;-5.49;87.99
41254;BME280;26987;59.928;30.306;2022-12-11T10:58:22;101686.78;;;-5.48;88.70
41254;BME280;26987;59.928;30.306;2022-12-11T11:01:02;101687.78;;;-5.50;88.83
41254;BME280;26987;59.928;30.306;2022-12-11T11:03:33;101675.34;;;-5.63;87.99
41254;BME280;26987;59.928;30.306;2022-12-11T11:06:04;101689.13;;;-5.59;88.18
41254;BME280;26987;59.928;30.306;2022-12-11T11:08:40;101686.50;;;-5.59;89.19
41254;BME280;26987;59.928;30.306;2022-12-11T11:11:21;101682.66;;;-5.52;88.88
41254;BME280;26987;59.928;30.306;2022-12-11T11:13:50;101670.97;;;-5.62;88.80
41254;BME280;26987;59.928;30.306;2022-12-11T11:16:21;101676.47;;;-5.51;89.08
41254;BME280;26987;59.928;30.306;2022-12-11T11:18:51;101682.09;;;-5.59;87.82
41254;BME280;26987;59.928;30.306;2022-12-11T11:21:22;101669.28;;;-5.63;87.99
41254;BME280;26987;59.928;30.306;2022-12-11T11:23:51;101682.28;;;-5.62;88.17
41254;BME280;26987;59.928;30.306;2022-12-11T11:26:20;101687.31;;;-5.59;88.30
41254;BME280;26987;59.928;30.306;2022-12-11T11:28:50;101683.09;;;-5.61;87.39
41254;BME280;26987;59.928;30.306;2022-12-11T11:31:28;101690.94;;;-5.61;88.24
41254;BME280;26987;59.928;30.306;2022-12-11T11:33:58;101707.56;;;-5.62;88.35
41254;BME280;26987;59.928;30.306;2022-12-11T11:36:30;101682.59;;;-5.68;88.27
41254;BME280;26987;59.928;30.306;2022-12-11T11:39:06;101706.16;;;-5.52;88.90
41254;BME280;26987;59.928;30.306;2022-12-11T11:41:46;101707.69;;;-5.48;88.28
41254;BME280;26987;59.928;30.306;2022-12-11T11:44:21;101693.03;;;-5.68;87.33
41254;BME280;26987;59.928;30.306;2022-12-11T11:46:57;101654.31;;;-5.95;87.81
41254;BME280;26987;59.928;30.306;2022-12-11T11:49:36;101705.97;;;-5.65;88.49
41254;BME280;26987;59.928;30.306;2022-12-11T11:52:13;101710.78;;;-5.57;88.59
41254;BME280;26987;59.928;30.306;2022-12-11T11:54:49;101711.31;;;-5.50;88.31
41254;BME280;26987;59.928;30.306;2022-12-11T11:57:27;101707.53;;;-5.45;87.78
41254;BME280;26987;59.928;30.306;2022-12-11T12:00:05;101694.94;;;-5.54;88.06
41254;BME280;26987;59.928;30.306;2022-12-11T12:02:40;101681.81;;;-5.70;87.42
41254;BME280;26987;59.928;30.306;2022-12-11T12:05:11;101664.91;;;-5.80;87.52
41254;BME280;26987;59.928;30.306;2022-12-11T12:07:43;101720.09;;;-5.51;87.37
41254;BME280;26987;59.928;30.306;2022-12-11T12:10:16;101691.81;;;-5.78;87.37
41254;BME280;26987;59.928;30.306;2022-12-11T12:12:54;101721.50;;;-5.62;86.72
41254;BME280;26987;59.928;30.306;2022-12-11T12:15:31;101715.06;;;-5.74;86.71
41254;BME280;26987;59.928;30.306;2022-12-11T12:18:09;101717.47;;;-5.69;87.24
41254;BME280;26987;59.928;30.306;2022-12-11T12:20:45;101720.94;;;-5.68;87.80
41254;BME280;26987;59.928;30.306;2022-12-11T12:23:34;101656.84;;;-6.11;87.61
41254;BME280;26987;59.928;30.306;2022-12-11T12:26:10;101715.00;;;-5.72;87.60
41254;BME280;26987;59.928;30.306;2022-12-11T12:28:47;101723.09;;;-5.77;86.84
41254;BME280;26987;59.928;30.306;2022-12-11T12:31:30;101706.78;;;-5.82;87.05
41254;BME280;26987;59.928;30.306;2022-12-11T12:34:10;101716.78;;;-5.90;87.64
41254;BME280;26987;59.928;30.306;2022-12-11T12:36:50;101718.53;;;-5.91;86.97
41254;BME280;26987;59.928;30.306;2022-12-11T12:39:28;101712.31;;;-5.88;86.55
41254;BME280;26987;59.928;30.306;2022-12-11T12:42:05;101712.44;;;-5.91;86.54
41254;BME280;26987;59.928;30.306;2022-12-11T12:44:40;101708.53;;;-6.00;86.52
41254;BME280;26987;59.928;30.306;2022-12-11T12:47:11;101703.84;;;-6.11;87.80
41254;BME280;26987;59.928;30.306;2022-12-11T12:49:42;101715.28;;;-5.96;87.85
41254;BME280;26987;59.928;30.306;2022-12-11T12:52:15;101713.38;;;-5.92;87.73
41254;BME280;26987;59.928;30.306;2022-12-11T12:54:46;101714.31;;;-5.93;87.11
41254;BME280;26987;59.928;30.306;2022-12-11T12:57:36;101715.44;;;-5.99;87.37
41254;BME280;26987;59.928;30.306;2022-12-11T13:00:06;101717.22;;;-6.00;86.60